Site contains unofficial IBTrACS data. Visit the IBTrACS Website to access archived data.

1860 Hurricane NOT_NAMED (1860267N12318)


IBTrACS version v04r00. Visit IBTrACS website for data access.
Please direct all questions to the IBTrACS Q and A forum

Storm track - Intensity - Wind Radii - Intensity Data - Source Data - All data

Summary Information

Storm ID 1860267N12318
Start Sep 23 00Z
Max Intensity 65 kt (Sep 24 12Z)
End Sep 29 12Z
ATCF IDs
Track status Best track data.

Storm track plot

Map of storm track

Intensity plots

Map of storm track

Radial wind information

No radial wind information for this storm


Position and Intensity Table

BASIN ISO_TIME_________ NATURE LAT LON MLC WIND
degrees north degrees east kts
NA 1860-09-23 00:00:00 TS 12.00 -41.60 35
NA 03:00:00 TS 12.15 -41.76 37
NA 06:00:00 TS 12.30 -41.90 40
NA 09:00:00 TS 12.45 -42.00 42
NA 12:00:00 TS 12.60 -42.10 45
NA 15:00:00 TS 12.75 -42.25 47
NA 18:00:00 TS 12.90 -42.40 50
NA 21:00:00 TS 13.04 -42.50 52
NA 1860-09-24 00:00:00 TS 13.20 -42.60 55
NA 03:00:00 TS 13.40 -42.75 57
NA 06:00:00 TS 13.60 -42.90 60
NA 09:00:00 TS 13.75 -43.01 62
NA 12:00:00 TS 13.90 -43.10 65
NA 15:00:00 TS 14.09 -43.21 65
NA 18:00:00 TS 14.30 -43.30 65
NA 21:00:00 TS 14.51 -43.36 65
NA 1860-09-25 00:00:00 TS 14.70 -43.40 65
NA 03:00:00 TS 14.86 -43.45 65
NA 06:00:00 TS 15.00 -43.50 65
NA 09:00:00 TS 15.15 -43.55 65
NA 12:00:00 TS 15.30 -43.60 65
NA 15:00:00 TS 15.46 -43.65 65
NA 18:00:00 TS 15.60 -43.70 65
NA 21:00:00 TS 15.69 -43.74 65
NA 1860-09-26 00:00:00 TS 15.80 -43.80 65
NA 03:00:00 TS 15.99 -43.90 65
NA 06:00:00 TS 16.20 -44.00 65
NA 09:00:00 TS 16.40 -44.06 65
NA 12:00:00 TS 16.60 -44.10 65
NA 15:00:00 TS 16.81 -44.15 65
NA 18:00:00 TS 17.00 -44.20 65
NA 21:00:00 TS 17.16 -44.24 65
NA 1860-09-27 00:00:00 TS 17.30 -44.30 65
NA 03:00:00 TS 17.42 -44.40 65
NA 06:00:00 TS 17.50 -44.50 65
NA 09:00:00 TS 17.56 -44.55 65
NA 12:00:00 TS 17.60 -44.60 65
NA 15:00:00 TS 17.65 -44.70 62
NA 18:00:00 TS 17.70 -44.80 60
NA 21:00:00 TS 17.76 -44.86 57
NA 1860-09-28 00:00:00 TS 17.80 -44.90 55
NA 03:00:00 TS 17.81 -44.94 52
NA 06:00:00 TS 17.80 -45.00 50
NA 09:00:00 TS 17.80 -45.09 47
NA 12:00:00 TS 17.80 -45.20 45
NA 15:00:00 TS 17.80 -45.30 42
NA 18:00:00 TS 17.80 -45.40 40
NA 21:00:00 TS 17.80 -45.51 35
NA 1860-09-29 00:00:00 TS 17.80 -45.60 30
NA 03:00:00 TS 17.80 -45.65 30
NA 06:00:00 TS 17.80 -45.70 30
NA 09:00:00 TS 17.80 -45.79 30
NA 12:00:00 TS 17.80 -45.90 30

Source Information

Agency Information
USA
TOKYO
CMA
HKO
NEWDELHI
REUNION
BOM
NADI
WELLINGTON
DS824
TD9636
TD9635
NEUMANN
MLC

All available IBTrACS Data

SEASON BASIN SUBBASIN ISO_TIME_________ NATURE LAT LON DIST2LAND LANDFALL IFLAG USA SSHS MLC LAT MLC LON MLC CLASS MLC WIND STORM SPEED STORM DIR
Year degrees north degrees east km km 1 degrees north degrees east kts kts degrees
1860 NA NA 1860-09-23 00:00:00 TS 12.00 -41.60 1372 1362 _____________O -1 12.00 -41.60 TS 35 4 314
1860 NA NA 03:00:00 TS 12.15 -41.76 1369 1361 _____________P -1 12.15 -41.76 TS 37 4 316
1860 NA NA 06:00:00 TS 12.30 -41.90 1368 1367 _____________O -1 12.30 -41.90 TS 40 4 323
1860 NA NA 09:00:00 TS 12.45 -42.00 1367 1366 _____________P -1 12.45 -42.00 TS 42 4 327
1860 NA NA 12:00:00 TS 12.60 -42.10 1374 1373 _____________O -1 12.60 -42.10 TS 45 4 321
1860 NA NA 15:00:00 TS 12.75 -42.25 1381 1373 _____________P -1 12.75 -42.25 TS 47 4 316
1860 NA NA 18:00:00 TS 12.90 -42.40 1373 1373 _____________O -1 12.90 -42.40 TS 50 4 320
1860 NA NA 21:00:00 TS 13.04 -42.50 1373 1373 _____________P -1 13.04 -42.50 TS 52 4 327
1860 NA NA 1860-09-24 00:00:00 TS 13.20 -42.60 1381 1381 _____________O -1 13.20 -42.60 TS 55 4 326
1860 NA NA 03:00:00 TS 13.40 -42.75 1389 1382 _____________P -1 13.40 -42.75 TS 57 5 324
1860 NA NA 06:00:00 TS 13.60 -42.90 1391 1391 _____________O -1 13.60 -42.90 TS 60 4 325
1860 NA NA 09:00:00 TS 13.75 -43.01 1392 1392 _____________P -1 13.75 -43.01 TS 62 4 327
1860 NA NA 12:00:00 TS 13.90 -43.10 1402 1402 _____________O -1 13.90 -43.10 HU 65 4 330
1860 NA NA 15:00:00 TS 14.09 -43.21 1412 1412 _____________P -1 14.09 -43.21 HU 65 4 334
1860 NA NA 18:00:00 TS 14.30 -43.30 1422 1422 _____________O -1 14.30 -43.30 HU 65 4 340
1860 NA NA 21:00:00 TS 14.51 -43.36 1433 1433 _____________P -1 14.51 -43.36 HU 65 4 347
1860 NA NA 1860-09-25 00:00:00 TS 14.70 -43.40 1451 1451 _____________O -1 14.70 -43.40 HU 65 4 346
1860 NA NA 03:00:00 TS 14.86 -43.45 1462 1462 _____________P -1 14.86 -43.45 HU 65 3 343
1860 NA NA 06:00:00 TS 15.00 -43.50 1471 1471 _____________O -1 15.00 -43.50 HU 65 3 341
1860 NA NA 09:00:00 TS 15.15 -43.55 1489 1483 _____________P -1 15.15 -43.55 HU 65 3 343
1860 NA NA 12:00:00 TS 15.30 -43.60 1492 1492 _____________O -1 15.30 -43.60 HU 65 3 343
1860 NA NA 15:00:00 TS 15.46 -43.65 1511 1505 _____________P -1 15.46 -43.65 HU 65 3 343
1860 NA NA 18:00:00 TS 15.60 -43.70 1514 1514 _____________O -1 15.60 -43.70 HU 65 3 340
1860 NA NA 21:00:00 TS 15.69 -43.74 1523 1517 _____________P -1 15.69 -43.74 HU 65 2 333
1860 NA NA 1860-09-26 00:00:00 TS 15.80 -43.80 1527 1527 _____________O -1 15.80 -43.80 HU 65 3 332
1860 NA NA 03:00:00 TS 15.99 -43.90 1538 1538 _____________P -1 15.99 -43.90 HU 65 4 334
1860 NA NA 06:00:00 TS 16.20 -44.00 1548 1548 _____________O -1 16.20 -44.00 HU 65 4 340
1860 NA NA 09:00:00 TS 16.40 -44.06 1559 1559 _____________P -1 16.40 -44.06 HU 65 4 347
1860 NA NA 12:00:00 TS 16.60 -44.10 1577 1577 _____________O -1 16.60 -44.10 HU 65 4 348
1860 NA NA 15:00:00 TS 16.81 -44.15 1589 1589 _____________P -1 16.81 -44.15 HU 65 4 347
1860 NA NA 18:00:00 TS 17.00 -44.20 1607 1607 _____________O -1 17.00 -44.20 HU 65 4 346
1860 NA NA 21:00:00 TS 17.16 -44.24 1625 1619 _____________P -1 17.16 -44.24 HU 65 3 343
1860 NA NA 1860-09-27 00:00:00 TS 17.30 -44.30 1628 1628 _____________O -1 17.30 -44.30 HU 65 3 329
1860 NA NA 03:00:00 TS 17.42 -44.40 1632 1632 _____________P -1 17.42 -44.40 HU 65 3 316
1860 NA NA 06:00:00 TS 17.50 -44.50 1635 1635 _____________O -1 17.50 -44.50 HU 65 2 315
1860 NA NA 09:00:00 TS 17.56 -44.55 1639 1639 _____________P -1 17.56 -44.55 HU 65 1 317
1860 NA NA 12:00:00 TS 17.60 -44.60 1639 1633 _____________O -1 17.60 -44.60 HU 65 2 303
1860 NA NA 15:00:00 TS 17.65 -44.70 1642 1637 _____________P -1 17.65 -44.70 HU 62 2 298
1860 NA NA 18:00:00 TS 17.70 -44.80 1637 1637 _____________O -1 17.70 -44.80 TS 60 2 306
1860 NA NA 21:00:00 TS 17.76 -44.86 1640 1640 _____________P -1 17.76 -44.86 TS 57 1 317
1860 NA NA 1860-09-28 00:00:00 TS 17.80 -44.90 1640 1640 _____________O -1 17.80 -44.90 TS 55 1 301
1860 NA NA 03:00:00 TS 17.81 -44.94 1640 1635 _____________P -1 17.81 -44.94 TS 52 1 270
1860 NA NA 06:00:00 TS 17.80 -45.00 1635 1629 _____________O -1 17.80 -45.00 TS 50 1 267
1860 NA NA 09:00:00 TS 17.80 -45.09 1629 1624 _____________P -1 17.80 -45.09 TS 47 2 270
1860 NA NA 12:00:00 TS 17.80 -45.20 1624 1619 _____________O -1 17.80 -45.20 TS 45 2 270
1860 NA NA 15:00:00 TS 17.80 -45.30 1619 1613 _____________P -1 17.80 -45.30 TS 42 2 270
1860 NA NA 18:00:00 TS 17.80 -45.40 1613 1608 _____________O -1 17.80 -45.40 TS 40 2 270
1860 NA NA 21:00:00 TS 17.80 -45.51 1608 1603 _____________P -1 17.80 -45.51 TS 35 2 270
1860 NA NA 1860-09-29 00:00:00 TS 17.80 -45.60 1603 1603 _____________O -1 17.80 -45.60 TD 30 1 270
1860 NA NA 03:00:00 TS 17.80 -45.65 1603 1598 _____________P -1 17.80 -45.65 TD 30 1 270
1860 NA NA 06:00:00 TS 17.80 -45.70 1598 1593 _____________O -1 17.80 -45.70 TD 30 1 270
1860 NA NA 09:00:00 TS 17.80 -45.79 1593 1588 _____________P -1 17.80 -45.79 TD 30 2 270
1860 NA NA 12:00:00 TS 17.80 -45.90 1588 _____________O -1 17.80 -45.90 TD 30 2 270